Time;durP1;ratioP1;P1;durP2;ratioP2;P2;SDS_P1;SDS_P2;PMS_P1;PMS_P2;Temp;Humidity;BMP_temperature;BMP_pressure;BME280_temperature;BME280_humidity;BME280_pressure;Samples;Min_cycle;Max_cycle;Signal;HPM_P1;HPM_P2
2022/01/16 00:04:30;;;;;;;242.88;80.18;;;;;;;;;;5031721;28;20209;-90
2022/01/16 00:07:03;;;;;;;288.33;81.10;;;;;;;;;;5017556;28;20618;-90
2022/01/16 00:09:31;;;;;;;367.80;109.57;;;;;;;;;;5035317;28;20190;-89
2022/01/16 00:12:00;;;;;;;379.30;104.47;;;;;;;;;;5035612;28;20205;-90
2022/01/16 00:14:28;;;;;;;369.75;92.40;;;;;;;;;;5035837;28;20228;-90
2022/01/16 00:16:55;;;;;;;385.98;95.43;;;;;;;;;;5017743;28;20209;-90
2022/01/16 00:19:23;;;;;;;384.35;101.95;;;;;;;;;;5036042;28;20197;-90
2022/01/16 00:21:50;;;;;;;349.55;98.63;;;;;;;;;;5045495;28;20205;-89
2022/01/16 00:24:19;;;;;;;71.40;39.40;;;;;;;;;;5046410;28;20204;-89
2022/01/16 00:26:46;;;;;;;350.45;103.32;;;;;;;;;;5046317;28;20185;-90
2022/01/16 00:29:14;;;;;;;322.10;93.55;;;;;;;;;;5040418;28;20220;-90
2022/01/16 00:31:42;;;;;;;382.55;104.15;;;;;;;;;;5035940;28;20250;-90
2022/01/16 00:34:09;;;;;;;384.52;96.95;;;;;;;;;;5035440;28;20200;-89
2022/01/16 00:36:37;;;;;;;168.52;78.30;;;;;;;;;;5034891;28;20204;-90
2022/01/16 00:39:05;;;;;;;197.30;75.15;;;;;;;;;;5035312;28;20618;-90
2022/01/16 00:41:35;;;;;;;32.30;29.52;;;;;;;;;;5034725;28;20628;-90
2022/01/16 00:44:02;;;;;;;27.73;25.77;;;;;;;;;;5035316;28;20191;-90
2022/01/16 00:46:30;;;;;;;27.10;25.00;;;;;;;;;;5040636;28;20201;-90
2022/01/16 00:48:57;;;;;;;30.63;28.02;;;;;;;;;;5038969;28;20600;-90
2022/01/16 00:51:24;;;;;;;26.50;24.60;;;;;;;;;;5035747;28;20232;-89
2022/01/16 00:53:53;;;;;;;28.20;26.20;;;;;;;;;;5036985;28;20231;-90
2022/01/16 00:56:21;;;;;;;26.90;24.92;;;;;;;;;;5028704;28;20255;-90
2022/01/16 00:58:54;;;;;;;26.67;24.73;;;;;;;;;;5048499;28;20197;-89
2022/01/16 01:01:24;;;;;;;26.75;24.83;;;;;;;;;;5028959;28;20201;-89
2022/01/16 01:03:52;;;;;;;26.98;25.08;;;;;;;;;;5044319;28;20212;-90
2022/01/16 01:06:19;;;;;;;25.40;23.75;;;;;;;;;;5044088;28;20189;-90
2022/01/16 01:08:47;;;;;;;26.40;24.50;;;;;;;;;;5027115;28;20215;-89
2022/01/16 01:11:19;;;;;;;26.38;24.58;;;;;;;;;;5044287;28;20189;-89
2022/01/16 01:14:13;;;;;;;26.83;24.92;;;;;;;;;;5026367;28;20205;-90
2022/01/16 01:16:54;;;;;;;26.30;24.20;;;;;;;;;;5043848;28;20672;-90
2022/01/16 01:19:29;;;;;;;24.85;23.15;;;;;;;;;;5043583;28;20659;-89
2022/01/16 01:21:56;;;;;;;26.63;24.73;;;;;;;;;;5044754;28;20255;-89
2022/01/16 01:24:24;;;;;;;25.90;24.00;;;;;;;;;;5044642;28;20201;-90
2022/01/16 01:27:01;;;;;;;26.02;24.17;;;;;;;;;;5044036;28;20209;-90
2022/01/16 01:29:31;;;;;;;26.50;24.50;;;;;;;;;;5043821;28;20192;-90
2022/01/16 01:32:01;;;;;;;26.30;24.30;;;;;;;;;;5043616;28;20265;-90
2022/01/16 01:34:30;;;;;;;26.90;24.80;;;;;;;;;;5043796;28;20665;-90
2022/01/16 01:36:58;;;;;;;25.85;24.05;;;;;;;;;;5043869;28;20205;-89
2022/01/16 01:39:25;;;;;;;26.10;24.30;;;;;;;;;;5043668;28;20592;-89
2022/01/16 01:42:04;;;;;;;26.80;24.80;;;;;;;;;;5026605;28;20189;-90
2022/01/16 01:52:54;;;;;;;25.13;23.45;;;;;;;;;;5046249;28;20266;-90
2022/01/16 01:55:25;;;;;;;26.63;24.45;;;;;;;;;;5048861;28;20239;-90
2022/01/16 01:57:53;;;;;;;25.10;23.30;;;;;;;;;;5027836;28;20565;-90
2022/01/16 02:00:22;;;;;;;25.35;23.45;;;;;;;;;;5043847;28;20658;-90
2022/01/16 02:03:09;;;;;;;25.55;23.75;;;;;;;;;;5043285;28;20198;-90
2022/01/16 02:05:38;;;;;;;27.38;25.38;;;;;;;;;;5026112;28;20253;-90
2022/01/16 02:08:06;;;;;;;26.48;24.48;;;;;;;;;;5044016;28;20194;-89
2022/01/16 02:10:34;;;;;;;27.40;25.50;;;;;;;;;;5043121;28;20185;-90
2022/01/16 02:13:06;;;;;;;28.23;26.13;;;;;;;;;;5042761;28;20654;-90
2022/01/16 02:32:29;;;;;;;26.60;24.65;;;;;;;;;;5041344;28;20234;-90
2022/01/16 02:34:56;;;;;;;25.17;23.45;;;;;;;;;;5042492;28;20225;-89
2022/01/16 02:37:25;;;;;;;26.27;24.48;;;;;;;;;;5042137;28;20194;-90
2022/01/16 02:40:00;;;;;;;26.48;24.58;;;;;;;;;;5042202;28;20295;-90
2022/01/16 02:42:36;;;;;;;25.30;23.60;;;;;;;;;;5042711;28;20269;-90
2022/01/16 02:45:05;;;;;;;26.20;24.40;;;;;;;;;;5043238;28;20204;-90
2022/01/16 02:47:33;;;;;;;26.88;24.98;;;;;;;;;;5058633;28;20188;-90
2022/01/16 02:50:01;;;;;;;26.58;24.67;;;;;;;;;;5042986;28;20275;-90
2022/01/16 02:52:29;;;;;;;27.00;24.90;;;;;;;;;;5037822;28;20236;-90
2022/01/16 02:55:00;;;;;;;27.13;24.90;;;;;;;;;;5035888;28;20193;-89
2022/01/16 02:57:29;;;;;;;27.70;25.48;;;;;;;;;;5017938;28;20654;-89
2022/01/16 02:59:57;;;;;;;27.10;25.05;;;;;;;;;;5035515;28;20196;-90
2022/01/16 03:02:25;;;;;;;27.20;25.10;;;;;;;;;;5035655;28;20190;-90
2022/01/16 03:04:53;;;;;;;27.30;25.35;;;;;;;;;;5035364;28;20232;-90
2022/01/16 03:07:22;;;;;;;27.15;25.15;;;;;;;;;;5035794;28;20193;-90
2022/01/16 03:10:14;;;;;;;26.85;24.77;;;;;;;;;;5035661;28;20189;-90
2022/01/16 03:12:41;;;;;;;35.35;27.25;;;;;;;;;;5035175;28;20215;-90
2022/01/16 03:15:09;;;;;;;37.03;27.92;;;;;;;;;;5034955;28;20197;-89
2022/01/16 03:17:41;;;;;;;30.13;27.02;;;;;;;;;;5034401;28;20196;-88
2022/01/16 03:22:54;;;;;;;31.33;28.50;;;;;;;;;;5035117;28;20195;-90
2022/01/16 03:25:24;;;;;;;30.55;27.88;;;;;;;;;;5035048;28;20205;-90
2022/01/16 03:27:52;;;;;;;31.80;28.85;;;;;;;;;;5034818;28;20189;-89
2022/01/16 03:30:19;;;;;;;29.63;26.92;;;;;;;;;;5035250;28;20205;-90
2022/01/16 03:32:46;;;;;;;29.98;27.50;;;;;;;;;;5035404;28;20185;-89
2022/01/16 03:35:14;;;;;;;30.98;28.17;;;;;;;;;;5034781;28;20848;-90
2022/01/16 03:37:41;;;;;;;31.98;29.20;;;;;;;;;;5034702;28;20194;-89
2022/01/16 03:40:11;;;;;;;31.92;29.02;;;;;;;;;;5034562;28;20252;-90
2022/01/16 03:42:40;;;;;;;29.77;27.10;;;;;;;;;;5034469;28;20201;-90
2022/01/16 03:45:08;;;;;;;39.30;29.42;;;;;;;;;;5034643;28;20209;-90
2022/01/16 03:47:36;;;;;;;33.72;30.00;;;;;;;;;;5034649;28;20200;-89
2022/01/16 03:50:04;;;;;;;45.10;30.67;;;;;;;;;;5034901;28;20193;-90
2022/01/16 03:52:32;;;;;;;33.30;29.83;;;;;;;;;;5034472;28;20232;-89
2022/01/16 03:54:59;;;;;;;32.85;29.20;;;;;;;;;;5034736;28;20235;-90
2022/01/16 03:57:27;;;;;;;43.15;30.77;;;;;;;;;;5016964;28;20232;-90
2022/01/16 03:59:55;;;;;;;40.50;30.95;;;;;;;;;;5034599;28;20194;-90
2022/01/16 04:02:23;;;;;;;40.38;30.95;;;;;;;;;;5034299;28;20197;-90
2022/01/16 04:04:50;;;;;;;48.00;33.28;;;;;;;;;;5034295;28;20196;-90
2022/01/16 04:07:25;;;;;;;38.55;31.27;;;;;;;;;;5034125;28;20652;-90
2022/01/16 04:09:52;;;;;;;37.95;30.80;;;;;;;;;;5034599;28;20200;-89
2022/01/16 04:12:22;;;;;;;42.03;33.90;;;;;;;;;;5034379;28;20197;-90
2022/01/16 04:17:36;;;;;;;41.70;30.83;;;;;;;;;;5034315;28;20197;-89
2022/01/16 04:20:04;;;;;;;40.47;31.15;;;;;;;;;;5034543;28;20189;-89
2022/01/16 04:22:31;;;;;;;35.55;31.73;;;;;;;;;;5034303;28;20206;-90
2022/01/16 04:24:58;;;;;;;44.78;31.98;;;;;;;;;;5034172;28;20195;-90
2022/01/16 04:27:26;;;;;;;51.40;29.58;;;;;;;;;;5034065;28;20220;-90
2022/01/16 04:29:53;;;;;;;41.08;31.25;;;;;;;;;;5033759;28;20204;-90
2022/01/16 04:32:20;;;;;;;45.60;32.08;;;;;;;;;;5034135;28;20206;-90
2022/01/16 04:34:49;;;;;;;35.13;31.02;;;;;;;;;;5034023;28;20195;-90
2022/01/16 04:37:17;;;;;;;45.28;32.20;;;;;;;;;;5034080;28;20224;-91
2022/01/16 04:39:49;;;;;;;58.05;34.28;;;;;;;;;;5033638;28;20723;-90
2022/01/16 04:45:02;;;;;;;60.95;33.65;;;;;;;;;;5034081;28;20204;-90
2022/01/16 04:47:30;;;;;;;59.75;34.30;;;;;;;;;;5000332;28;20202;-90
2022/01/16 04:49:59;;;;;;;47.75;33.35;;;;;;;;;;5033996;28;20193;-90
2022/01/16 04:52:27;;;;;;;62.08;34.50;;;;;;;;;;5033578;28;20714;-90
2022/01/16 04:54:54;;;;;;;49.97;32.42;;;;;;;;;;5033524;28;20274;-89
2022/01/16 04:57:21;;;;;;;63.40;33.17;;;;;;;;;;5033633;28;20220;-90
2022/01/16 04:59:49;;;;;;;50.55;30.98;;;;;;;;;;5033635;28;20697;-90
2022/01/16 05:02:16;;;;;;;47.35;31.60;;;;;;;;;;5033550;28;20198;-90
2022/01/16 05:04:44;;;;;;;54.40;34.90;;;;;;;;;;5033796;28;20262;-90
2022/01/16 05:07:12;;;;;;;65.43;33.33;;;;;;;;;;5016459;28;20210;-91
2022/01/16 05:09:40;;;;;;;47.88;34.05;;;;;;;;;;5034056;28;20231;-89
2022/01/16 05:12:12;;;;;;;61.03;34.28;;;;;;;;;;5016145;28;20205;-90
2022/01/16 05:17:24;;;;;;;65.63;35.80;;;;;;;;;;5033479;28;20212;-90
2022/01/16 05:19:51;;;;;;;48.15;33.55;;;;;;;;;;5033700;28;20189;-90
2022/01/16 05:22:20;;;;;;;69.82;37.30;;;;;;;;;;5033388;28;20664;-90
2022/01/16 05:24:48;;;;;;;74.15;37.75;;;;;;;;;;5015898;28;20200;-90
2022/01/16 05:27:15;;;;;;;55.05;35.88;;;;;;;;;;5033690;28;20203;-90
2022/01/16 05:29:42;;;;;;;66.25;36.05;;;;;;;;;;5033411;28;20252;-90
2022/01/16 05:32:10;;;;;;;76.68;36.88;;;;;;;;;;5033633;28;20189;-90
2022/01/16 05:34:37;;;;;;;70.63;34.85;;;;;;;;;;5033415;28;20269;-90
2022/01/16 05:37:04;;;;;;;49.53;36.10;;;;;;;;;;5033047;28;20717;-90
2022/01/16 05:39:34;;;;;;;58.67;35.20;;;;;;;;;;5015810;28;20217;-90
2022/01/16 05:42:02;;;;;;;62.85;35.17;;;;;;;;;;5035062;28;20202;-90
2022/01/16 05:44:29;;;;;;;68.28;35.53;;;;;;;;;;5037030;28;20185;-89
2022/01/16 05:46:56;;;;;;;52.33;35.33;;;;;;;;;;5036798;28;20208;-90
2022/01/16 05:49:24;;;;;;;53.80;38.08;;;;;;;;;;5036428;28;20196;-88
2022/01/16 05:51:51;;;;;;;75.80;36.47;;;;;;;;;;5036059;28;20240;-90
2022/01/16 05:54:18;;;;;;;58.65;36.00;;;;;;;;;;5036764;28;20193;-89
2022/01/16 05:56:47;;;;;;;69.18;37.63;;;;;;;;;;5036776;28;20224;-90
2022/01/16 05:59:15;;;;;;;71.70;37.00;;;;;;;;;;5036972;28;20190;-90
2022/01/16 06:01:42;;;;;;;61.20;38.10;;;;;;;;;;5036647;28;20189;-90
2022/01/16 06:04:09;;;;;;;56.33;39.17;;;;;;;;;;5036806;28;20189;-90
2022/01/16 06:06:37;;;;;;;58.72;38.25;;;;;;;;;;5036629;28;20209;-89
2022/01/16 06:09:04;;;;;;;54.03;37.53;;;;;;;;;;5036445;28;20196;-90
2022/01/16 06:11:31;;;;;;;93.70;37.22;;;;;;;;;;5036414;28;20197;-90
2022/01/16 06:14:00;;;;;;;65.25;39.03;;;;;;;;;;5036630;28;20200;-90
2022/01/16 06:16:27;;;;;;;61.67;37.67;;;;;;;;;;5036443;28;20227;-90
2022/01/16 06:18:55;;;;;;;48.38;35.47;;;;;;;;;;5036419;28;20189;-89
2022/01/16 06:21:22;;;;;;;64.03;39.00;;;;;;;;;;5036518;28;20196;-90
2022/01/16 06:23:49;;;;;;;54.33;39.85;;;;;;;;;;5036236;28;20185;-90
2022/01/16 06:26:17;;;;;;;52.20;37.97;;;;;;;;;;5036112;28;20189;-90
2022/01/16 06:28:44;;;;;;;52.85;40.58;;;;;;;;;;5036100;28;20644;-89
2022/01/16 06:31:13;;;;;;;54.60;39.53;;;;;;;;;;5036082;28;20194;-90
2022/01/16 06:33:40;;;;;;;52.08;41.53;;;;;;;;;;5036019;28;20196;-90
2022/01/16 06:36:08;;;;;;;44.78;37.97;;;;;;;;;;5035955;28;20197;-90
2022/01/16 06:38:35;;;;;;;56.35;44.17;;;;;;;;;;5035949;28;20288;-89
2022/01/16 06:41:02;;;;;;;56.42;42.67;;;;;;;;;;5036065;28;20205;-90
2022/01/16 06:43:30;;;;;;;76.47;52.58;;;;;;;;;;5035981;28;20297;-90
2022/01/16 06:45:57;;;;;;;56.10;44.00;;;;;;;;;;5035816;28;20193;-89
2022/01/16 06:48:26;;;;;;;50.65;38.80;;;;;;;;;;5036218;28;20605;-90
2022/01/16 06:50:53;;;;;;;59.80;42.95;;;;;;;;;;5035708;28;20259;-90
2022/01/16 06:53:21;;;;;;;60.65;44.08;;;;;;;;;;5035423;28;20191;-90
2022/01/16 06:55:48;;;;;;;66.45;45.95;;;;;;;;;;5035543;28;20202;-89
2022/01/16 06:58:16;;;;;;;56.80;44.28;;;;;;;;;;5035727;28;20217;-90
2022/01/16 07:00:43;;;;;;;59.67;42.95;;;;;;;;;;5001809;28;20740;-90
2022/01/16 07:03:11;;;;;;;61.65;44.10;;;;;;;;;;5017857;28;20567;-89
2022/01/16 07:05:40;;;;;;;60.58;44.03;;;;;;;;;;5035363;28;20208;-88
2022/01/16 07:08:07;;;;;;;55.00;42.00;;;;;;;;;;5035556;28;20599;-89
2022/01/16 07:10:34;;;;;;;60.20;44.35;;;;;;;;;;5017639;28;20656;-89
2022/01/16 07:13:02;;;;;;;49.05;41.22;;;;;;;;;;5035605;28;20197;-89
2022/01/16 07:15:29;;;;;;;52.47;41.47;;;;;;;;;;5035497;28;20193;-90
2022/01/16 07:17:57;;;;;;;55.72;43.20;;;;;;;;;;5017604;28;20229;-89
2022/01/16 07:20:25;;;;;;;48.85;42.75;;;;;;;;;;5035002;28;20215;-89
2022/01/16 07:22:53;;;;;;;47.97;41.45;;;;;;;;;;5017650;28;20185;-88
2022/01/16 07:25:21;;;;;;;50.05;41.55;;;;;;;;;;5035102;28;20200;-89
2022/01/16 07:27:48;;;;;;;51.30;42.83;;;;;;;;;;5035187;28;20205;-88
2022/01/16 07:30:15;;;;;;;53.17;40.17;;;;;;;;;;5035015;28;20201;-89
2022/01/16 07:32:43;;;;;;;51.72;41.15;;;;;;;;;;5035081;28;20212;-90
2022/01/16 07:35:10;;;;;;;51.00;42.25;;;;;;;;;;5035036;28;20209;-89
2022/01/16 07:37:38;;;;;;;51.25;41.13;;;;;;;;;;5035112;28;20243;-90
2022/01/16 07:40:09;;;;;;;55.63;41.22;;;;;;;;;;5034987;28;20264;-89
2022/01/16 07:42:36;;;;;;;52.15;42.17;;;;;;;;;;5034901;28;20251;-90
2022/01/16 07:45:04;;;;;;;50.05;39.88;;;;;;;;;;5034715;28;20185;-89
2022/01/16 07:47:32;;;;;;;53.63;39.05;;;;;;;;;;5017091;28;20198;-90
2022/01/16 07:49:59;;;;;;;60.30;43.13;;;;;;;;;;5034854;28;20191;-88
2022/01/16 07:52:27;;;;;;;44.65;38.15;;;;;;;;;;5034155;28;20230;-90
2022/01/16 07:54:54;;;;;;;49.20;39.08;;;;;;;;;;5034307;28;20194;-87
2022/01/16 07:57:23;;;;;;;37.42;32.60;;;;;;;;;;5034552;28;20222;-87
2022/01/16 07:59:50;;;;;;;52.53;40.00;;;;;;;;;;5034569;28;20205;-87
2022/01/16 08:02:18;;;;;;;53.70;40.50;;;;;;;;;;5034255;28;20209;-87
2022/01/16 08:04:45;;;;;;;54.72;41.30;;;;;;;;;;5016017;28;20250;-88
2022/01/16 08:07:12;;;;;;;54.17;41.67;;;;;;;;;;5034126;28;20201;-87
2022/01/16 08:09:40;;;;;;;57.60;40.92;;;;;;;;;;5034426;28;20200;-87
2022/01/16 08:12:08;;;;;;;60.97;42.92;;;;;;;;;;5033978;28;20955;-87
2022/01/16 08:14:37;;;;;;;61.70;42.45;;;;;;;;;;5034137;28;20643;-87
2022/01/16 08:17:05;;;;;;;59.08;43.80;;;;;;;;;;5034102;28;20208;-88
2022/01/16 08:19:33;;;;;;;56.58;40.42;;;;;;;;;;5034243;28;20201;-88
2022/01/16 08:22:00;;;;;;;66.45;41.10;;;;;;;;;;5034127;28;20660;-89
2022/01/16 08:24:27;;;;;;;31.58;28.27;;;;;;;;;;5034342;28;20569;-89
2022/01/16 08:26:55;;;;;;;52.17;39.15;;;;;;;;;;5034139;28;20258;-88
2022/01/16 08:29:22;;;;;;;55.28;41.97;;;;;;;;;;5033903;28;20185;-88
2022/01/16 08:31:51;;;;;;;53.08;39.17;;;;;;;;;;5016755;28;20197;-88
2022/01/16 08:34:18;;;;;;;60.28;42.10;;;;;;;;;;5033827;28;20193;-88
2022/01/16 08:36:46;;;;;;;64.70;44.80;;;;;;;;;;5033859;28;20211;-88
2022/01/16 08:39:14;;;;;;;61.20;43.63;;;;;;;;;;5033869;28;20768;-88
2022/01/16 08:41:42;;;;;;;58.72;41.08;;;;;;;;;;5033903;28;20189;-89
2022/01/16 08:44:09;;;;;;;54.45;42.28;;;;;;;;;;5033895;28;20703;-88
2022/01/16 08:46:37;;;;;;;68.30;45.25;;;;;;;;;;5033675;28;20192;-88
2022/01/16 08:49:05;;;;;;;58.25;43.78;;;;;;;;;;5034074;28;20190;-89
2022/01/16 08:51:33;;;;;;;58.58;44.20;;;;;;;;;;5033639;28;20234;-88
2022/01/16 08:54:01;;;;;;;59.63;45.35;;;;;;;;;;5033690;28;20662;-89
2022/01/16 08:56:28;;;;;;;54.25;42.88;;;;;;;;;;5033842;28;20189;-87
2022/01/16 08:58:55;;;;;;;59.38;46.17;;;;;;;;;;5033659;28;20213;-91
2022/01/16 09:01:23;;;;;;;53.38;42.00;;;;;;;;;;5016148;28;20224;-87
2022/01/16 09:03:51;;;;;;;63.88;43.83;;;;;;;;;;5033789;28;20194;-86
2022/01/16 09:06:21;;;;;;;63.67;46.58;;;;;;;;;;5033956;28;20197;-87
2022/01/16 09:08:48;;;;;;;61.55;44.85;;;;;;;;;;5012435;28;20206;-85
2022/01/16 09:11:16;;;;;;;53.47;42.03;;;;;;;;;;5009295;28;20265;-86
2022/01/16 09:13:43;;;;;;;59.60;43.72;;;;;;;;;;5000456;28;20651;-87
2022/01/16 09:16:10;;;;;;;70.55;46.67;;;;;;;;;;5033704;28;20263;-87
2022/01/16 09:18:38;;;;;;;74.50;50.67;;;;;;;;;;5037307;28;20826;-86
2022/01/16 09:21:05;;;;;;;65.55;46.67;;;;;;;;;;5037250;28;20213;-87
2022/01/16 09:23:35;;;;;;;68.82;47.15;;;;;;;;;;5036866;28;20215;-86
2022/01/16 09:26:03;;;;;;;57.92;41.50;;;;;;;;;;5037180;28;20226;-86
2022/01/16 09:28:30;;;;;;;67.43;47.58;;;;;;;;;;5037006;28;20185;-86
2022/01/16 09:30:57;;;;;;;81.03;50.45;;;;;;;;;;5037289;28;20190;-87
2022/01/16 09:33:25;;;;;;;68.78;49.67;;;;;;;;;;5036708;28;20189;-87
2022/01/16 09:35:52;;;;;;;84.53;53.75;;;;;;;;;;5037045;28;20239;-87
2022/01/16 09:38:21;;;;;;;70.18;51.40;;;;;;;;;;5036702;28;20233;-87
2022/01/16 09:40:51;;;;;;;78.10;53.88;;;;;;;;;;5019724;28;20235;-87
2022/01/16 09:43:19;;;;;;;76.03;51.42;;;;;;;;;;5037026;28;20650;-86
2022/01/16 09:45:46;;;;;;;77.60;52.63;;;;;;;;;;5037037;28;20194;-87
2022/01/16 09:48:14;;;;;;;97.38;58.28;;;;;;;;;;5019132;28;20209;-86
2022/01/16 09:50:41;;;;;;;83.90;54.53;;;;;;;;;;5036741;28;20240;-87
2022/01/16 09:53:08;;;;;;;71.70;51.58;;;;;;;;;;5036885;28;20190;-87
2022/01/16 09:55:36;;;;;;;83.57;53.65;;;;;;;;;;5024154;28;20192;-86
2022/01/16 09:58:04;;;;;;;83.40;54.63;;;;;;;;;;5015935;28;20244;-86
2022/01/16 10:00:32;;;;;;;87.25;59.22;;;;;;;;;;4999179;28;20213;-88
2022/01/16 10:02:59;;;;;;;93.68;57.72;;;;;;;;;;5016615;28;20209;-86
2022/01/16 10:05:28;;;;;;;85.30;55.80;;;;;;;;;;5016925;28;20190;-87
2022/01/16 10:07:56;;;;;;;81.68;52.45;;;;;;;;;;5013389;28;20295;-86
2022/01/16 10:10:26;;;;;;;90.35;57.05;;;;;;;;;;5012419;28;20214;-86
2022/01/16 10:12:55;;;;;;;93.55;61.50;;;;;;;;;;5010066;28;20206;-86
2022/01/16 10:15:25;;;;;;;90.10;54.58;;;;;;;;;;5006001;28;20203;-87
2022/01/16 10:17:53;;;;;;;85.60;56.70;;;;;;;;;;4997014;28;20248;-85
2022/01/16 10:20:20;;;;;;;86.80;61.10;;;;;;;;;;4996815;28;20202;-85
2022/01/16 10:22:49;;;;;;;91.68;59.55;;;;;;;;;;4994955;28;20194;-85
2022/01/16 10:25:18;;;;;;;86.05;59.58;;;;;;;;;;4996243;28;20524;-85
2022/01/16 10:27:46;;;;;;;99.03;61.25;;;;;;;;;;4996063;28;20203;-85
2022/01/16 10:30:14;;;;;;;94.55;61.90;;;;;;;;;;4996181;28;20191;-85
2022/01/16 10:32:44;;;;;;;89.88;59.78;;;;;;;;;;4996539;28;20194;-86
2022/01/16 10:35:14;;;;;;;87.78;56.65;;;;;;;;;;4997090;28;20199;-86
2022/01/16 10:37:42;;;;;;;90.35;59.22;;;;;;;;;;4996836;28;20345;-86
2022/01/16 10:40:11;;;;;;;90.47;60.20;;;;;;;;;;4995843;28;20257;-87
2022/01/16 10:42:40;;;;;;;96.63;62.55;;;;;;;;;;4996472;28;20278;-86
2022/01/16 10:45:09;;;;;;;90.10;62.65;;;;;;;;;;4996751;28;20220;-86
2022/01/16 10:47:38;;;;;;;79.28;60.05;;;;;;;;;;4997059;28;20214;-87
2022/01/16 10:50:11;;;;;;;82.63;60.20;;;;;;;;;;4998086;28;20200;-87
2022/01/16 10:52:52;;;;;;;91.53;59.40;;;;;;;;;;5015000;28;20238;-86
2022/01/16 10:55:20;;;;;;;87.60;59.08;;;;;;;;;;5015497;28;20696;-88
2022/01/16 10:57:48;;;;;;;83.03;58.00;;;;;;;;;;5015796;28;20227;-86
2022/01/16 11:00:17;;;;;;;83.57;64.63;;;;;;;;;;5016250;28;20206;-87
2022/01/16 11:02:46;;;;;;;83.45;59.17;;;;;;;;;;5016038;28;20721;-85
2022/01/16 11:05:16;;;;;;;82.00;55.83;;;;;;;;;;5015885;28;20200;-87
2022/01/16 11:07:44;;;;;;;70.80;53.65;;;;;;;;;;5015841;28;20187;-87
2022/01/16 11:10:22;;;;;;;76.13;55.67;;;;;;;;;;5015702;28;20198;-87
2022/01/16 11:12:50;;;;;;;83.20;60.65;;;;;;;;;;5015387;28;20609;-87
2022/01/16 11:15:17;;;;;;;84.43;57.88;;;;;;;;;;5015700;28;20256;-86
2022/01/16 11:17:44;;;;;;;75.53;51.72;;;;;;;;;;5015319;28;20227;-87
2022/01/16 11:20:12;;;;;;;77.03;58.40;;;;;;;;;;5015731;28;20198;-86
2022/01/16 11:22:59;;;;;;;75.55;57.15;;;;;;;;;;5015460;28;20238;-87
2022/01/16 11:25:33;;;;;;;79.88;59.03;;;;;;;;;;5015054;28;20233;-86
2022/01/16 11:28:11;;;;;;;70.20;52.83;;;;;;;;;;5015603;28;20213;-87
2022/01/16 11:30:40;;;;;;;69.70;53.97;;;;;;;;;;5015330;28;20191;-87
2022/01/16 11:33:08;;;;;;;67.65;53.50;;;;;;;;;;5015650;28;20188;-86
2022/01/16 11:35:37;;;;;;;67.55;51.42;;;;;;;;;;5015042;28;20244;-86
2022/01/16 11:38:07;;;;;;;71.65;55.85;;;;;;;;;;5015010;28;20214;-86
2022/01/16 11:40:42;;;;;;;71.20;55.63;;;;;;;;;;5014569;28;20214;-85
2022/01/16 11:43:30;;;;;;;65.00;51.90;;;;;;;;;;5014469;28;20198;-84
2022/01/16 11:46:05;;;;;;;67.28;53.72;;;;;;;;;;5009714;28;20218;-85
2022/01/16 11:48:37;;;;;;;64.38;51.78;;;;;;;;;;5014484;28;20223;-85
2022/01/16 11:51:05;;;;;;;67.47;50.88;;;;;;;;;;5014536;28;20242;-85
2022/01/16 11:53:51;;;;;;;59.10;47.78;;;;;;;;;;5014019;28;20188;-86
2022/01/16 11:56:37;;;;;;;58.63;51.63;;;;;;;;;;4996527;28;20211;-83
2022/01/16 11:59:23;;;;;;;58.53;51.15;;;;;;;;;;5013596;28;20218;-84
2022/01/16 12:01:53;;;;;;;57.08;50.08;;;;;;;;;;5014482;28;20209;-84
2022/01/16 12:04:40;;;;;;;61.63;50.33;;;;;;;;;;5014056;28;20273;-84
2022/01/16 12:07:23;;;;;;;53.53;43.60;;;;;;;;;;5013739;28;20310;-84
2022/01/16 12:09:54;;;;;;;57.17;49.78;;;;;;;;;;5013991;28;20274;-84
2022/01/16 12:12:36;;;;;;;53.00;43.65;;;;;;;;;;5013419;28;20216;-85
2022/01/16 12:15:05;;;;;;;58.63;50.58;;;;;;;;;;5013931;28;20199;-85
2022/01/16 12:17:35;;;;;;;56.55;48.03;;;;;;;;;;4997155;28;20352;-84
2022/01/16 12:20:22;;;;;;;49.38;43.95;;;;;;;;;;5013621;28;20222;-84
2022/01/16 12:22:52;;;;;;;60.33;53.30;;;;;;;;;;5025805;28;20198;-83
2022/01/16 12:25:20;;;;;;;55.30;47.80;;;;;;;;;;5032705;28;20218;-83
2022/01/16 12:27:52;;;;;;;56.85;50.72;;;;;;;;;;5033280;28;20193;-83
2022/01/16 12:30:33;;;;;;;51.80;45.15;;;;;;;;;;5032864;28;20706;-83
2022/01/16 12:33:08;;;;;;;54.83;47.35;;;;;;;;;;5034030;28;20210;-84
2022/01/16 12:36:24;;;;;;;55.55;49.35;;;;;;;;;;5032945;28;20223;-83
2022/01/16 12:39:06;;;;;;;54.95;48.28;;;;;;;;;;5034076;28;20230;-83
2022/01/16 12:41:41;;;;;;;57.15;48.22;;;;;;;;;;5034433;28;20210;-83
2022/01/16 12:44:10;;;;;;;50.97;45.72;;;;;;;;;;5035101;28;20212;-82
2022/01/16 12:46:38;;;;;;;55.97;47.25;;;;;;;;;;5034888;28;20191;-83
2022/01/16 12:49:08;;;;;;;50.10;44.80;;;;;;;;;;5035736;28;20191;-83
2022/01/16 12:51:36;;;;;;;52.22;46.63;;;;;;;;;;5048505;28;20220;-83
2022/01/16 12:54:09;;;;;;;47.72;42.83;;;;;;;;;;5050852;28;20191;-84
2022/01/16 12:56:38;;;;;;;54.10;45.10;;;;;;;;;;5045345;28;20199;-83
2022/01/16 12:59:11;;;;;;;54.20;45.50;;;;;;;;;;5043341;28;20226;-84
2022/01/16 13:01:40;;;;;;;49.85;44.25;;;;;;;;;;5041973;28;20284;-82
2022/01/16 13:04:08;;;;;;;49.47;44.08;;;;;;;;;;5041974;28;20683;-84
2022/01/16 13:06:36;;;;;;;48.45;43.58;;;;;;;;;;5041337;28;20191;-84
2022/01/16 13:09:05;;;;;;;45.97;41.08;;;;;;;;;;5038868;28;20294;-83
2022/01/16 13:11:38;;;;;;;45.03;40.47;;;;;;;;;;5049705;28;20199;-83
2022/01/16 13:17:11;;;;;;;49.40;44.08;;;;;;;;;;5056808;28;20221;-84
2022/01/16 13:26:14;;;;;;;43.10;38.63;;;;;;;;;;5080012;28;20209;-84
2022/01/16 13:37:35;;;;;;;48.88;43.95;;;;;;;;;;5076526;28;20188;-82
2022/01/16 13:58:02;;;;;;;47.55;42.58;;;;;;;;;;4995194;28;20232;-82
2022/01/16 14:03:41;;;;;;;54.10;48.80;;;;;;;;;;4992897;28;20227;-85
2022/01/16 14:06:18;;;;;;;47.58;42.47;;;;;;;;;;4995134;28;20242;-85
2022/01/16 14:09:03;;;;;;;44.33;39.85;;;;;;;;;;4995253;28;20684;-85
2022/01/16 14:11:52;;;;;;;47.05;42.03;;;;;;;;;;4994075;28;20689;-86
2022/01/16 14:14:28;;;;;;;50.65;45.53;;;;;;;;;;4992029;28;20213;-85
2022/01/16 14:22:38;;;;;;;49.75;44.35;;;;;;;;;;5045535;28;20661;-85
2022/01/16 14:25:09;;;;;;;48.17;42.95;;;;;;;;;;5039492;28;20199;-84
2022/01/16 14:27:37;;;;;;;49.42;44.08;;;;;;;;;;5040423;28;20203;-85
2022/01/16 14:30:05;;;;;;;48.92;43.83;;;;;;;;;;5040941;28;20529;-84
2022/01/16 14:32:33;;;;;;;50.13;43.63;;;;;;;;;;5038543;28;20187;-84
2022/01/16 14:35:01;;;;;;;48.92;43.60;;;;;;;;;;5038382;28;20453;-84
2022/01/16 14:37:31;;;;;;;47.92;42.78;;;;;;;;;;5038789;28;20209;-84
2022/01/16 14:40:00;;;;;;;50.53;45.05;;;;;;;;;;5038357;28;20214;-84
2022/01/16 14:42:35;;;;;;;48.38;41.33;;;;;;;;;;5038896;28;20552;-85
2022/01/16 14:45:03;;;;;;;48.13;43.17;;;;;;;;;;5038781;28;20205;-84
2022/01/16 14:47:30;;;;;;;51.63;46.22;;;;;;;;;;5037565;28;20200;-83
2022/01/16 15:36:53;;;;;;;61.13;49.75;;;;;;;;;;5013032;28;20236;-84
2022/01/16 15:42:38;;;;;;;49.38;43.05;;;;;;;;;;5015132;28;20214;-83
2022/01/16 15:45:21;;;;;;;40.90;36.95;;;;;;;;;;5016521;28;20228;-83
2022/01/16 15:51:05;;;;;;;50.55;44.22;;;;;;;;;;5013904;28;20200;-83
2022/01/16 15:59:24;;;;;;;53.42;46.33;;;;;;;;;;5012570;28;20258;-82
2022/01/16 16:02:05;;;;;;;51.92;45.97;;;;;;;;;;5013235;28;20179;-83
2022/01/16 16:07:19;;;;;;;52.58;43.88;;;;;;;;;;5013201;28;20201;-85
2022/01/16 16:21:20;;;;;;;62.90;47.58;;;;;;;;;;5052137;28;20222;-83
2022/01/16 16:23:52;;;;;;;56.80;46.42;;;;;;;;;;5052361;28;21243;-83
2022/01/16 16:31:53;;;;;;;68.22;53.03;;;;;;;;;;5052447;28;20203;-83
2022/01/16 16:42:53;;;;;;;58.60;46.00;;;;;;;;;;5050919;28;20209;-82
2022/01/16 16:45:22;;;;;;;55.58;44.58;;;;;;;;;;5053366;28;20190;-83
2022/01/16 16:47:55;;;;;;;54.45;44.17;;;;;;;;;;5053195;28;20267;-83
2022/01/16 16:50:33;;;;;;;62.17;46.90;;;;;;;;;;5034381;28;20194;-83
2022/01/16 16:53:20;;;;;;;59.03;47.13;;;;;;;;;;5055793;28;20195;-83
2022/01/16 17:01:58;;;;;;;58.88;47.08;;;;;;;;;;5052194;28;20199;-82
2022/01/16 17:04:28;;;;;;;61.97;48.20;;;;;;;;;;5051186;28;20219;-81
2022/01/16 17:07:02;;;;;;;55.25;45.85;;;;;;;;;;5051901;28;20880;-83
2022/01/16 17:09:29;;;;;;;52.92;45.30;;;;;;;;;;5045238;28;20738;-83
2022/01/16 17:11:59;;;;;;;60.25;49.17;;;;;;;;;;5032306;28;20203;-84
2022/01/16 17:14:33;;;;;;;50.90;43.67;;;;;;;;;;5052937;28;20219;-84
2022/01/16 17:19:51;;;;;;;61.40;45.15;;;;;;;;;;5047960;28;20226;-82
2022/01/16 17:22:22;;;;;;;57.88;46.58;;;;;;;;;;5050601;28;20208;-84
2022/01/16 17:27:56;;;;;;;61.35;50.88;;;;;;;;;;5050487;28;20200;-82
2022/01/16 17:30:34;;;;;;;65.18;48.40;;;;;;;;;;5031494;28;20202;-82
2022/01/16 17:38:38;;;;;;;56.97;44.25;;;;;;;;;;5043338;28;20196;-83
2022/01/16 17:41:07;;;;;;;58.22;46.83;;;;;;;;;;5050624;28;20234;-84